Time;durP1;ratioP1;P1;durP2;ratioP2;P2;SDS_P1;SDS_P2;PMS_P1;PMS_P2;Temp;Humidity;BMP_temperature;BMP_pressure;BME280_temperature;BME280_humidity;BME280_pressure;Samples;Min_cycle;Max_cycle;Signal;HPM_P1;HPM_P2
2023/07/13 00:00:46;;;;;;;;;;;;;;;;;;5031302;28;2491;-60
2023/07/13 00:03:13;;;;;;;;;;;;;;;;;;5043843;28;4566;-60
2023/07/13 00:05:38;;;;;;;;;;;;;;;;;;5025136;28;4631;-60
2023/07/13 00:08:03;;;;;;;;;;;;;;;;;;5022714;28;4977;-60
2023/07/13 00:10:29;;;;;;;;;;;;;;;;;;5027170;28;5122;-60
2023/07/13 00:12:54;;;;;;;;;;;;;;;;;;5028628;28;1466;-60
2023/07/13 00:15:22;;;;;;;;;;;;;;;;;;5025358;28;4394;-60
2023/07/13 00:17:48;;;;;;;;;;;;;;;;;;5043408;28;5088;-60
2023/07/13 00:20:13;;;;;;;;;;;;;;;;;;5026863;28;4872;-60
2023/07/13 00:22:38;;;;;;;;;;;;;;;;;;5026111;28;5053;-60
2023/07/13 00:25:04;;;;;;;;;;;;;;;;;;5028018;28;3299;-60
2023/07/13 00:27:32;;;;;;;;;;;;;;;;;;5028103;28;4560;-60
2023/07/13 00:29:57;;;;;;;;;;;;;;;;;;5027361;28;4983;-60
2023/07/13 00:32:25;;;;;;;;;;;;;;;;;;5026493;28;4909;-60
2023/07/13 00:34:50;;;;;;;;;;;;;;;;;;5028071;28;5166;-60
2023/07/13 00:37:15;;;;;;;;;;;;;;;;;;5027379;28;5062;-60
2023/07/13 00:39:40;;;;;;;;;;;;;;;;;;5028322;28;999;-60
2023/07/13 00:42:06;;;;;;;;;;;;;;;;;;5029720;28;4558;-60
2023/07/13 00:44:31;;;;;;;;;;;;;;;;;;5024681;28;5011;-60
2023/07/13 00:46:58;;;;;;;;;;;;;;;;;;5026638;28;5121;-60
2023/07/13 00:49:24;;;;;;;;;;;;;;;;;;5026071;28;5053;-60
2023/07/13 00:51:50;;;;;;;;;;;;;;;;;;5026428;28;1273;-60
2023/07/13 00:54:17;;;;;;;;;;;;;;;;;;5027842;28;4584;-60
2023/07/13 00:56:43;;;;;;;;;;;;;;;;;;5004887;28;4497;-60
2023/07/13 00:59:09;;;;;;;;;;;;;;;;;;5043613;28;5006;-61
2023/07/13 01:01:36;;;;;;;;;;;;;;;;;;5022953;28;4433;-60
2023/07/13 01:04:02;;;;;;;;;;;;;;;;;;5041124;28;1197;-61
2023/07/13 01:06:27;;;;;;;;;;;;;;;;;;5045704;28;4935;-61
2023/07/13 01:08:53;;;;;;;;;;;;;;;;;;5062002;28;5069;-61
2023/07/13 01:11:20;;;;;;;;;;;;;;;;;;5046344;28;5169;-60
2023/07/13 01:13:45;;;;;;;;;;;;;;;;;;5044170;28;4612;-60
2023/07/13 01:16:18;;;;;;;;;;;;;;;;;;5061453;28;5029;-61
2023/07/13 01:18:43;;;;;;;;;;;;;;;;;;5048010;28;1145;-60
2023/07/13 01:21:08;;;;;;;;;;;;;;;;;;5047815;28;5046;-61
2023/07/13 01:23:34;;;;;;;;;;;;;;;;;;5049755;28;5097;-60
2023/07/13 01:25:59;;;;;;;;;;;;;;;;;;5047642;28;5159;-61
2023/07/13 01:28:26;;;;;;;;;;;;;;;;;;5044062;28;5140;-60
2023/07/13 01:30:51;;;;;;;;;;;;;;;;;;5048795;28;1126;-61
2023/07/13 01:33:17;;;;;;;;;;;;;;;;;;5047782;28;4400;-60
2023/07/13 01:35:43;;;;;;;;;;;;;;;;;;5047584;28;5182;-61
2023/07/13 01:38:08;;;;;;;;;;;;;;;;;;5050083;28;4874;-60
2023/07/13 01:40:33;;;;;;;;;;;;;;;;;;5047577;28;4500;-60
2023/07/13 01:42:59;;;;;;;;;;;;;;;;;;5049963;28;1504;-61
2023/07/13 01:45:24;;;;;;;;;;;;;;;;;;5051136;28;4705;-60
2023/07/13 01:47:49;;;;;;;;;;;;;;;;;;5050864;28;4953;-60
2023/07/13 01:50:14;;;;;;;;;;;;;;;;;;5051357;28;5076;-60
2023/07/13 01:52:40;;;;;;;;;;;;;;;;;;5050747;28;4479;-60
2023/07/13 01:55:05;;;;;;;;;;;;;;;;;;5051049;28;4956;-61
2023/07/13 01:57:31;;;;;;;;;;;;;;;;;;5064334;28;1148;-60
2023/07/13 01:59:56;;;;;;;;;;;;;;;;;;5050643;28;5023;-60
2023/07/13 02:02:22;;;;;;;;;;;;;;;;;;5050995;28;5246;-60
2023/07/13 02:04:47;;;;;;;;;;;;;;;;;;5051239;28;4953;-60
2023/07/13 02:07:12;;;;;;;;;;;;;;;;;;5050633;28;5181;-60
2023/07/13 02:09:37;;;;;;;;;;;;;;;;;;5051447;28;1310;-60
2023/07/13 02:12:03;;;;;;;;;;;;;;;;;;5047401;28;4423;-60
2023/07/13 02:14:28;;;;;;;;;;;;;;;;;;5047491;28;4603;-60
2023/07/13 02:16:54;;;;;;;;;;;;;;;;;;5043509;28;5106;-60
2023/07/13 02:19:19;;;;;;;;;;;;;;;;;;5042867;28;4635;-60
2023/07/13 02:21:44;;;;;;;;;;;;;;;;;;5053494;28;4905;-60
2023/07/13 02:24:09;;;;;;;;;;;;;;;;;;5050803;28;4988;-60
2023/07/13 02:26:34;;;;;;;;;;;;;;;;;;5046773;28;5170;-60
2023/07/13 02:29:00;;;;;;;;;;;;;;;;;;5048112;28;4506;-61
2023/07/13 02:31:25;;;;;;;;;;;;;;;;;;5044257;28;4619;-61
2023/07/13 02:33:50;;;;;;;;;;;;;;;;;;5052958;28;1255;-60
2023/07/13 02:36:16;;;;;;;;;;;;;;;;;;5050218;28;5039;-60
2023/07/13 02:38:41;;;;;;;;;;;;;;;;;;5043378;28;5090;-60
2023/07/13 02:41:06;;;;;;;;;;;;;;;;;;5049795;28;5066;-60
2023/07/13 02:43:32;;;;;;;;;;;;;;;;;;5039237;28;5012;-60
2023/07/13 02:46:00;;;;;;;;;;;;;;;;;;5050476;28;1990;-60
2023/07/13 02:48:25;;;;;;;;;;;;;;;;;;5051465;28;4564;-61
2023/07/13 02:50:51;;;;;;;;;;;;;;;;;;5049873;28;4972;-61
2023/07/13 02:53:16;;;;;;;;;;;;;;;;;;5047333;28;5100;-61
2023/07/13 02:55:47;;;;;;;;;;;;;;;;;;5049445;28;5119;-61
2023/07/13 02:58:16;;;;;;;;;;;;;;;;;;5049554;28;5005;-60
2023/07/13 03:00:41;;;;;;;;;;;;;;;;;;5048949;28;1281;-61
2023/07/13 03:03:07;;;;;;;;;;;;;;;;;;5051447;28;4766;-61
2023/07/13 03:05:32;;;;;;;;;;;;;;;;;;5049342;28;4654;-61
2023/07/13 03:07:57;;;;;;;;;;;;;;;;;;5045673;28;4482;-61
2023/07/13 03:10:23;;;;;;;;;;;;;;;;;;5049511;28;4971;-61
2023/07/13 03:12:48;;;;;;;;;;;;;;;;;;5041109;28;1373;-60
2023/07/13 03:15:13;;;;;;;;;;;;;;;;;;5047793;28;5057;-60
2023/07/13 03:17:38;;;;;;;;;;;;;;;;;;5049422;28;4670;-61
2023/07/13 03:20:04;;;;;;;;;;;;;;;;;;5049587;28;5054;-60
2023/07/13 03:22:29;;;;;;;;;;;;;;;;;;5047182;28;4793;-61
2023/07/13 03:24:55;;;;;;;;;;;;;;;;;;5049666;28;1082;-60
2023/07/13 03:27:20;;;;;;;;;;;;;;;;;;5046881;28;4989;-60
2023/07/13 03:29:45;;;;;;;;;;;;;;;;;;5049272;28;5011;-60
2023/07/13 03:32:10;;;;;;;;;;;;;;;;;;5048986;28;4509;-60
2023/07/13 03:34:36;;;;;;;;;;;;;;;;;;5048107;28;4596;-60
2023/07/13 03:37:01;;;;;;;;;;;;;;;;;;5047600;28;1333;-60
2023/07/13 03:39:26;;;;;;;;;;;;;;;;;;5046744;28;4458;-60
2023/07/13 03:41:51;;;;;;;;;;;;;;;;;;5046211;28;4822;-61
2023/07/13 03:44:17;;;;;;;;;;;;;;;;;;5047423;28;4979;-60
2023/07/13 03:46:42;;;;;;;;;;;;;;;;;;5048743;28;4736;-60
2023/07/13 03:49:08;;;;;;;;;;;;;;;;;;5046476;28;5306;-60
2023/07/13 03:51:33;;;;;;;;;;;;;;;;;;5049215;28;1085;-60
2023/07/13 03:53:58;;;;;;;;;;;;;;;;;;5047738;28;4455;-60
2023/07/13 03:56:23;;;;;;;;;;;;;;;;;;5047663;28;5081;-60
2023/07/13 03:58:49;;;;;;;;;;;;;;;;;;5048690;28;4464;-60
2023/07/13 04:01:14;;;;;;;;;;;;;;;;;;5048516;28;4416;-60
2023/07/13 04:03:40;;;;;;;;;;;;;;;;;;5048451;28;1164;-60
2023/07/13 04:06:06;;;;;;;;;;;;;;;;;;5045313;28;5814;-61
2023/07/13 04:08:32;;;;;;;;;;;;;;;;;;5048152;28;4438;-61
2023/07/13 04:10:57;;;;;;;;;;;;;;;;;;5048300;28;4618;-60
2023/07/13 04:13:23;;;;;;;;;;;;;;;;;;5047659;28;4537;-61
2023/07/13 04:15:48;;;;;;;;;;;;;;;;;;5043299;28;3495;-61
2023/07/13 04:18:13;;;;;;;;;;;;;;;;;;5041560;28;5142;-61
2023/07/13 04:20:38;;;;;;;;;;;;;;;;;;5043941;28;5361;-61
2023/07/13 04:23:04;;;;;;;;;;;;;;;;;;5040896;28;5182;-63
2023/07/13 04:25:29;;;;;;;;;;;;;;;;;;5040339;28;5145;-60
2023/07/13 04:27:54;;;;;;;;;;;;;;;;;;5046063;28;3298;-61
2023/07/13 04:30:20;;;;;;;;;;;;;;;;;;5045190;28;4999;-60
2023/07/13 04:32:45;;;;;;;;;;;;;;;;;;5041470;28;4421;-60
2023/07/13 04:35:10;;;;;;;;;;;;;;;;;;5045262;28;4819;-61
2023/07/13 04:37:35;;;;;;;;;;;;;;;;;;5038557;28;4687;-62
2023/07/13 04:40:01;;;;;;;;;;;;;;;;;;5046391;28;2432;-60
2023/07/13 04:42:26;;;;;;;;;;;;;;;;;;5046755;28;5116;-62
2023/07/13 04:44:51;;;;;;;;;;;;;;;;;;5047047;28;4725;-61
2023/07/13 04:47:17;;;;;;;;;;;;;;;;;;5043850;28;4494;-62
2023/07/13 04:49:42;;;;;;;;;;;;;;;;;;5062837;28;4593;-60
2023/07/13 04:52:08;;;;;;;;;;;;;;;;;;5048153;28;4464;-61
2023/07/13 04:54:33;;;;;;;;;;;;;;;;;;5049956;28;1205;-61
2023/07/13 04:56:59;;;;;;;;;;;;;;;;;;5047614;28;4961;-60
2023/07/13 04:59:24;;;;;;;;;;;;;;;;;;5044009;28;4927;-61
2023/07/13 05:01:49;;;;;;;;;;;;;;;;;;5047789;28;4938;-62
2023/07/13 05:04:14;;;;;;;;;;;;;;;;;;5047763;28;4448;-60
2023/07/13 05:06:40;;;;;;;;;;;;;;;;;;5047953;28;1914;-65
2023/07/13 05:09:05;;;;;;;;;;;;;;;;;;5049514;28;4991;-60
2023/07/13 05:11:31;;;;;;;;;;;;;;;;;;5047127;28;4515;-60
2023/07/13 05:13:56;;;;;;;;;;;;;;;;;;5041616;28;5109;-62
2023/07/13 05:16:21;;;;;;;;;;;;;;;;;;5047993;28;4632;-61
2023/07/13 05:18:46;;;;;;;;;;;;;;;;;;5051530;28;1172;-62
2023/07/13 05:21:12;;;;;;;;;;;;;;;;;;5048650;28;4868;-61
2023/07/13 05:23:37;;;;;;;;;;;;;;;;;;5051200;28;5071;-60
2023/07/13 05:26:03;;;;;;;;;;;;;;;;;;5051523;28;5059;-61
2023/07/13 05:28:30;;;;;;;;;;;;;;;;;;5050407;28;5077;-62
2023/07/13 05:30:55;;;;;;;;;;;;;;;;;;5050382;28;1137;-60
2023/07/13 05:33:21;;;;;;;;;;;;;;;;;;5050846;28;4568;-62
2023/07/13 05:35:46;;;;;;;;;;;;;;;;;;5051114;28;5345;-61
2023/07/13 05:38:11;;;;;;;;;;;;;;;;;;5050567;28;5168;-61
2023/07/13 05:40:37;;;;;;;;;;;;;;;;;;5050881;28;4937;-60
2023/07/13 05:43:02;;;;;;;;;;;;;;;;;;5050167;28;1342;-62
2023/07/13 05:45:27;;;;;;;;;;;;;;;;;;5051247;28;5261;-61
2023/07/13 05:47:53;;;;;;;;;;;;;;;;;;5060073;28;4562;-61
2023/07/13 05:50:18;;;;;;;;;;;;;;;;;;5050887;28;4842;-61
2023/07/13 05:52:43;;;;;;;;;;;;;;;;;;5050392;28;4891;-61
2023/07/13 05:55:08;;;;;;;;;;;;;;;;;;5051231;28;4947;-61
2023/07/13 05:57:33;;;;;;;;;;;;;;;;;;5048084;28;1308;-60
2023/07/13 05:59:59;;;;;;;;;;;;;;;;;;5050204;28;4457;-60
2023/07/13 06:02:25;;;;;;;;;;;;;;;;;;5050987;28;4944;-60
2023/07/13 06:04:50;;;;;;;;;;;;;;;;;;5041269;28;4498;-59
2023/07/13 06:07:15;;;;;;;;;;;;;;;;;;5050428;28;5283;-60
2023/07/13 06:09:41;;;;;;;;;;;;;;;;;;5050301;28;1501;-61
2023/07/13 06:12:06;;;;;;;;;;;;;;;;;;5051338;28;4483;-62
2023/07/13 06:14:31;;;;;;;;;;;;;;;;;;5044897;28;4534;-61
2023/07/13 06:16:57;;;;;;;;;;;;;;;;;;5050615;28;5009;-60
2023/07/13 06:19:22;;;;;;;;;;;;;;;;;;5050291;28;5026;-61
2023/07/13 06:21:47;;;;;;;;;;;;;;;;;;5065733;28;4844;-60
2023/07/13 06:24:12;;;;;;;;;;;;;;;;;;5047503;28;5106;-60
2023/07/13 06:26:38;;;;;;;;;;;;;;;;;;5050264;28;4934;-60
2023/07/13 06:29:03;;;;;;;;;;;;;;;;;;5037177;28;4556;-60
2023/07/13 06:31:28;;;;;;;;;;;;;;;;;;5050389;28;4692;-60
2023/07/13 06:33:53;;;;;;;;;;;;;;;;;;5065513;28;2474;-62
2023/07/13 06:36:19;;;;;;;;;;;;;;;;;;5049809;28;4549;-60
2023/07/13 06:38:44;;;;;;;;;;;;;;;;;;5046130;28;5056;-60
2023/07/13 06:41:09;;;;;;;;;;;;;;;;;;5048948;28;4458;-63
2023/07/13 06:43:34;;;;;;;;;;;;;;;;;;5050175;28;5146;-61
2023/07/13 06:46:00;;;;;;;;;;;;;;;;;;5048826;28;1914;-61
2023/07/13 06:48:26;;;;;;;;;;;;;;;;;;5048249;28;4419;-60
2023/07/13 06:50:51;;;;;;;;;;;;;;;;;;5049888;28;4445;-64
2023/07/13 06:53:17;;;;;;;;;;;;;;;;;;5042886;28;5070;-61
2023/07/13 06:55:43;;;;;;;;;;;;;;;;;;5049906;28;4903;-60
2023/07/13 06:58:08;;;;;;;;;;;;;;;;;;5049299;28;4490;-61
2023/07/13 07:00:33;;;;;;;;;;;;;;;;;;5048763;28;1506;-61
2023/07/13 07:02:59;;;;;;;;;;;;;;;;;;5049303;28;4478;-63
2023/07/13 07:05:24;;;;;;;;;;;;;;;;;;5049507;28;4623;-62
2023/07/13 07:07:49;;;;;;;;;;;;;;;;;;5049176;28;4997;-62
2023/07/13 07:10:15;;;;;;;;;;;;;;;;;;5049263;28;5082;-61
2023/07/13 07:12:40;;;;;;;;;;;;;;;;;;5049617;28;1552;-65
2023/07/13 07:15:05;;;;;;;;;;;;;;;;;;5046277;28;4997;-62
2023/07/13 07:17:30;;;;;;;;;;;;;;;;;;5048913;28;4680;-60
2023/07/13 07:19:56;;;;;;;;;;;;;;;;;;5045550;28;4718;-62
2023/07/13 07:22:21;;;;;;;;;;;;;;;;;;5048356;28;5106;-63
2023/07/13 07:24:46;;;;;;;;;;;;;;;;;;5049109;28;1208;-61
2023/07/13 07:27:11;;;;;;;;;;;;;;;;;;5049054;28;4931;-62
2023/07/13 07:29:37;;;;;;;;;;;;;;;;;;5048951;28;5079;-61
2023/07/13 07:32:02;;;;;;;;;;;;;;;;;;5033368;28;5028;-61
2023/07/13 07:34:27;;;;;;;;;;;;;;;;;;5045894;28;5082;-60
2023/07/13 07:36:53;;;;;;;;;;;;;;;;;;5049104;28;1224;-62
2023/07/13 07:39:18;;;;;;;;;;;;;;;;;;5047536;28;5537;-62
2023/07/13 07:41:43;;;;;;;;;;;;;;;;;;5056380;28;5072;-61
2023/07/13 07:44:10;;;;;;;;;;;;;;;;;;5048224;28;5002;-61
2023/07/13 07:46:35;;;;;;;;;;;;;;;;;;5048770;28;4987;-61
2023/07/13 07:49:00;;;;;;;;;;;;;;;;;;5045129;28;3418;-61
2023/07/13 07:51:26;;;;;;;;;;;;;;;;;;5047746;28;4633;-59
2023/07/13 07:53:51;;;;;;;;;;;;;;;;;;5047691;28;4642;-61
2023/07/13 07:56:16;;;;;;;;;;;;;;;;;;5045698;28;5119;-62
2023/07/13 07:58:42;;;;;;;;;;;;;;;;;;5048194;28;5328;-63
2023/07/13 08:01:13;;;;;;;;;;;;;;;;;;5077888;27;4541;-58
2023/07/13 08:03:38;;;;;;;;;;;;;;;;;;5042569;28;3288;-61
2023/07/13 08:06:03;;;;;;;;;;;;;;;;;;5040333;28;4937;-59
2023/07/13 08:08:29;;;;;;;;;;;;;;;;;;5043417;28;4982;-58
2023/07/13 08:10:54;;;;;;;;;;;;;;;;;;5038425;28;5069;-58
2023/07/13 08:13:19;;;;;;;;;;;;;;;;;;5042461;28;4647;-59
2023/07/13 08:15:45;;;;;;;;;;;;;;;;;;5040567;28;3114;-58
2023/07/13 08:18:10;;;;;;;;;;;;;;;;;;5043304;28;5152;-59
2023/07/13 08:20:39;;;;;;;;;;;;;;;;;;5039401;28;4643;-59
2023/07/13 08:23:04;;;;;;;;;;;;;;;;;;5039470;28;5136;-59
2023/07/13 08:25:29;;;;;;;;;;;;;;;;;;5038757;28;4876;-58
2023/07/13 08:27:54;;;;;;;;;;;;;;;;;;5045041;28;2611;-60
2023/07/13 08:30:20;;;;;;;;;;;;;;;;;;5042892;28;4977;-59
2023/07/13 08:32:45;;;;;;;;;;;;;;;;;;5040513;28;5080;-59
2023/07/13 08:35:10;;;;;;;;;;;;;;;;;;5044404;28;4607;-59
2023/07/13 08:37:35;;;;;;;;;;;;;;;;;;5043920;28;4854;-59
2023/07/13 08:40:00;;;;;;;;;;;;;;;;;;5042114;28;1927;-59
2023/07/13 08:42:45;;;;;;;;;;;;;;;;;;5043896;28;4818;-59
2023/07/13 08:45:21;;;;;;;;;;;;;;;;;;5043990;28;4977;-60
2023/07/13 08:47:57;;;;;;;;;;;;;;;;;;5043060;28;5155;-60
2023/07/13 08:50:24;;;;;;;;;;;;;;;;;;5042755;28;4626;-59
2023/07/13 08:52:49;;;;;;;;;;;;;;;;;;5044129;28;4998;-59
2023/07/13 08:55:15;;;;;;;;;;;;;;;;;;5043093;28;4949;-59
2023/07/13 08:57:41;;;;;;;;;;;;;;;;;;5043553;28;1306;-60
2023/07/13 09:00:09;;;;;;;;;;;;;;;;;;5041906;28;5006;-59
2023/07/13 09:02:43;;;;;;;;;;;;;;;;;;5042233;28;4487;-59
2023/07/13 09:05:13;;;;;;;;;;;;;;;;;;5038033;28;5065;-59
2023/07/13 09:07:57;;;;;;;;;;;;;;;;;;5042584;28;4609;-59
2023/07/13 09:10:48;;;;;;;;;;;;;;;;;;5041277;28;4860;-60
2023/07/13 09:13:31;;;;;;;;;;;;;;;;;;5025640;28;4986;-59
2023/07/13 09:15:58;;;;;;;;;;;;;;;;;;5025829;28;1145;-60
2023/07/13 09:18:33;;;;;;;;;;;;;;;;;;5028196;28;4699;-60
2023/07/13 09:21:01;;;;;;;;;;;;;;;;;;5026133;28;4469;-60
2023/07/13 09:23:29;;;;;;;;;;;;;;;;;;5023991;28;4550;-60
2023/07/13 09:25:55;;;;;;;;;;;;;;;;;;5029452;28;5054;-60
2023/07/13 09:28:30;;;;;;;;;;;;;;;;;;5028296;28;4493;-60
2023/07/13 09:30:58;;;;;;;;;;;;;;;;;;5026012;28;3390;-60
2023/07/13 09:33:24;;;;;;;;;;;;;;;;;;5005189;28;5000;-59
2023/07/13 09:35:49;;;;;;;;;;;;;;;;;;5021805;28;4715;-60
2023/07/13 09:38:16;;;;;;;;;;;;;;;;;;5027863;28;5498;-59
2023/07/13 09:40:41;;;;;;;;;;;;;;;;;;5029869;28;5288;-60
2023/07/13 09:43:07;;;;;;;;;;;;;;;;;;5027180;28;5016;-59
2023/07/13 09:45:33;;;;;;;;;;;;;;;;;;5029758;28;2139;-59
2023/07/13 09:48:05;;;;;;;;;;;;;;;;;;5027245;28;4968;-59
2023/07/13 09:50:30;;;;;;;;;;;;;;;;;;5023018;28;5129;-59
2023/07/13 09:52:58;;;;;;;;;;;;;;;;;;5028245;28;5379;-59
2023/07/13 09:55:36;;;;;;;;;;;;;;;;;;5028147;28;4435;-59
2023/07/13 09:58:19;;;;;;;;;;;;;;;;;;5029452;28;1297;-59
2023/07/13 10:00:55;;;;;;;;;;;;;;;;;;5006120;28;5466;-58
2023/07/13 10:03:23;;;;;;;;;;;;;;;;;;5016333;28;5032;-54
2023/07/13 10:05:50;;;;;;;;;;;;;;;;;;5017114;28;4945;-65
2023/07/13 10:08:25;;;;;;;;;;;;;;;;;;5025693;28;4490;-63
2023/07/13 10:10:55;;;;;;;;;;;;;;;;;;5025880;28;4485;-62
2023/07/13 10:13:48;;;;;;;;;;;;;;;;;;5009126;28;5056;-58
2023/07/13 10:16:14;;;;;;;;;;;;;;;;;;5016653;28;5051;-63
2023/07/13 10:18:44;;;;;;;;;;;;;;;;;;5024098;28;1759;-69
2023/07/13 10:21:20;;;;;;;;;;;;;;;;;;5026306;28;4884;-68
2023/07/13 10:23:54;;;;;;;;;;;;;;;;;;5022234;28;5790;-66
2023/07/13 10:26:23;;;;;;;;;;;;;;;;;;5027850;28;4665;-61
2023/07/13 10:28:51;;;;;;;;;;;;;;;;;;5022507;28;5018;-61
2023/07/13 10:31:17;;;;;;;;;;;;;;;;;;5019858;28;5086;-61
2023/07/13 10:33:42;;;;;;;;;;;;;;;;;;5027361;28;1158;-61
2023/07/13 10:36:27;;;;;;;;;;;;;;;;;;5027149;28;4763;-61
2023/07/13 10:38:53;;;;;;;;;;;;;;;;;;5021393;28;4556;-60
2023/07/13 10:41:19;;;;;;;;;;;;;;;;;;5025054;28;4538;-61
2023/07/13 10:43:45;;;;;;;;;;;;;;;;;;5027658;28;4645;-60
2023/07/13 10:46:11;;;;;;;;;;;;;;;;;;5024957;28;5248;-61
2023/07/13 10:48:36;;;;;;;;;;;;;;;;;;5027691;28;1129;-61
2023/07/13 10:51:02;;;;;;;;;;;;;;;;;;5023700;28;4420;-64
2023/07/13 10:53:28;;;;;;;;;;;;;;;;;;5024378;28;4703;-66
2023/07/13 10:55:56;;;;;;;;;;;;;;;;;;5027409;28;5225;-63
2023/07/13 10:58:27;;;;;;;;;;;;;;;;;;5027551;28;4990;-60
2023/07/13 11:01:11;;;;;;;;;;;;;;;;;;5027494;28;3227;-74
2023/07/13 11:03:43;;;;;;;;;;;;;;;;;;5024116;28;5005;-82
2023/07/13 11:06:09;;;;;;;;;;;;;;;;;;5027502;28;4446;-72
2023/07/13 11:08:54;;;;;;;;;;;;;;;;;;5023463;28;5468;-68
2023/07/13 11:11:22;;;;;;;;;;;;;;;;;;5022945;28;4949;-61
2023/07/13 11:13:50;;;;;;;;;;;;;;;;;;5023896;28;4476;-62
2023/07/13 11:16:16;;;;;;;;;;;;;;;;;;5021370;28;4679;-71
2023/07/13 11:18:44;;;;;;;;;;;;;;;;;;5027837;28;2052;-60
2023/07/13 11:21:16;;;;;;;;;;;;;;;;;;5021895;28;4874;-59
2023/07/13 11:23:42;;;;;;;;;;;;;;;;;;5017312;28;4652;-65
2023/07/13 11:26:27;;;;;;;;;;;;;;;;;;5025202;28;5183;-63
2023/07/13 11:28:52;;;;;;;;;;;;;;;;;;5027370;28;5117;-64
2023/07/13 11:31:19;;;;;;;;;;;;;;;;;;5023489;28;5021;-66
2023/07/13 11:33:55;;;;;;;;;;;;;;;;;;5017403;28;1156;-61
2023/07/13 11:36:22;;;;;;;;;;;;;;;;;;5020755;28;4825;-64
2023/07/13 11:38:58;;;;;;;;;;;;;;;;;;5023047;28;4715;-65
2023/07/13 11:41:43;;;;;;;;;;;;;;;;;;5024933;28;5123;-64
2023/07/13 11:44:15;;;;;;;;;;;;;;;;;;5026434;28;4636;-67
2023/07/13 11:46:44;;;;;;;;;;;;;;;;;;5021806;28;5189;-64
2023/07/13 11:49:11;;;;;;;;;;;;;;;;;;5020911;28;5044;-66
2023/07/13 11:51:36;;;;;;;;;;;;;;;;;;5024417;28;1276;-65
2023/07/13 11:54:22;;;;;;;;;;;;;;;;;;5025934;28;4792;-66
2023/07/13 11:56:49;;;;;;;;;;;;;;;;;;5026598;28;4662;-69
2023/07/13 11:59:14;;;;;;;;;;;;;;;;;;5024544;28;5036;-67
2023/07/13 12:01:45;;;;;;;;;;;;;;;;;;5023511;28;4549;-67
2023/07/13 12:04:21;;;;;;;;;;;;;;;;;;5022409;28;5269;-64
2023/07/13 12:06:46;;;;;;;;;;;;;;;;;;5024463;28;1270;-66
2023/07/13 12:09:12;;;;;;;;;;;;;;;;;;5025282;28;4432;-66
2023/07/13 12:11:38;;;;;;;;;;;;;;;;;;5020205;28;5067;-66
2023/07/13 12:14:03;;;;;;;;;;;;;;;;;;5019737;28;5618;-66
2023/07/13 12:16:30;;;;;;;;;;;;;;;;;;5022053;28;5177;-63
2023/07/13 12:18:55;;;;;;;;;;;;;;;;;;5019392;28;3250;-61
2023/07/13 12:21:22;;;;;;;;;;;;;;;;;;5020320;28;4924;-58
2023/07/13 12:23:49;;;;;;;;;;;;;;;;;;5007253;28;4559;-58
2023/07/13 12:26:14;;;;;;;;;;;;;;;;;;5024093;28;5010;-58
2023/07/13 12:28:44;;;;;;;;;;;;;;;;;;5021270;28;4494;-58
2023/07/13 12:31:24;;;;;;;;;;;;;;;;;;5025099;28;4489;-59
2023/07/13 12:33:55;;;;;;;;;;;;;;;;;;5025275;28;3149;-57
2023/07/13 12:36:21;;;;;;;;;;;;;;;;;;5022604;28;4859;-61
2023/07/13 12:38:46;;;;;;;;;;;;;;;;;;5016487;28;4549;-64
2023/07/13 12:41:11;;;;;;;;;;;;;;;;;;5017598;28;5152;-57
2023/07/13 12:43:37;;;;;;;;;;;;;;;;;;5017174;28;4973;-52
2023/07/13 12:46:03;;;;;;;;;;;;;;;;;;5032149;28;3463;-51
2023/07/13 12:48:28;;;;;;;;;;;;;;;;;;5021948;28;5156;-51
2023/07/13 12:50:54;;;;;;;;;;;;;;;;;;5029794;28;5079;-58
2023/07/13 12:53:28;;;;;;;;;;;;;;;;;;5028100;28;5320;-61
2023/07/13 12:55:54;;;;;;;;;;;;;;;;;;5023639;28;4524;-66
2023/07/13 12:58:37;;;;;;;;;;;;;;;;;;5025268;28;4491;-52
2023/07/13 13:01:03;;;;;;;;;;;;;;;;;;5025597;28;1997;-49
2023/07/13 13:03:38;;;;;;;;;;;;;;;;;;5023080;28;4433;-48
2023/07/13 13:06:04;;;;;;;;;;;;;;;;;;5023792;28;5059;-51
2023/07/13 13:08:30;;;;;;;;;;;;;;;;;;5022193;28;5105;-56
2023/07/13 13:10:55;;;;;;;;;;;;;;;;;;5021641;28;5579;-53
2023/07/13 13:13:20;;;;;;;;;;;;;;;;;;5025616;28;5550;-49
2023/07/13 13:15:46;;;;;;;;;;;;;;;;;;5016381;28;1351;-50
2023/07/13 13:18:21;;;;;;;;;;;;;;;;;;5024289;28;4720;-53
2023/07/13 13:20:46;;;;;;;;;;;;;;;;;;5028132;28;5036;-54
2023/07/13 13:23:17;;;;;;;;;;;;;;;;;;5015005;28;5133;-53
2023/07/13 13:25:43;;;;;;;;;;;;;;;;;;5008485;28;5458;-53
2023/07/13 13:28:18;;;;;;;;;;;;;;;;;;5020760;28;5082;-53
2023/07/13 13:30:44;;;;;;;;;;;;;;;;;;5022028;28;3170;-63
2023/07/13 13:33:13;;;;;;;;;;;;;;;;;;5028298;28;4441;-60
2023/07/13 13:35:39;;;;;;;;;;;;;;;;;;5024790;28;5145;-58
2023/07/13 13:38:09;;;;;;;;;;;;;;;;;;5020962;28;4735;-56
2023/07/13 13:40:34;;;;;;;;;;;;;;;;;;5022389;28;5021;-56
2023/07/13 13:42:59;;;;;;;;;;;;;;;;;;5025363;28;3430;-57
2023/07/13 13:45:25;;;;;;;;;;;;;;;;;;5025786;28;4596;-57
2023/07/13 13:47:50;;;;;;;;;;;;;;;;;;5026685;28;5338;-58
2023/07/13 13:50:24;;;;;;;;;;;;;;;;;;5027986;28;5002;-58
2023/07/13 13:52:50;;;;;;;;;;;;;;;;;;5025950;28;5125;-60
2023/07/13 13:55:19;;;;;;;;;;;;;;;;;;5022763;28;5098;-61
2023/07/13 13:57:47;;;;;;;;;;;;;;;;;;5023155;28;3096;-61
2023/07/13 14:00:14;;;;;;;;;;;;;;;;;;5027033;28;4660;-60
2023/07/13 14:02:40;;;;;;;;;;;;;;;;;;5028137;28;4947;-61
2023/07/13 14:05:07;;;;;;;;;;;;;;;;;;5022176;28;4586;-60
2023/07/13 14:07:32;;;;;;;;;;;;;;;;;;5023134;28;5191;-61
2023/07/13 14:09:58;;;;;;;;;;;;;;;;;;5027022;28;3388;-62
2023/07/13 14:12:25;;;;;;;;;;;;;;;;;;5021089;28;4650;-61
2023/07/13 14:14:51;;;;;;;;;;;;;;;;;;5020254;28;5071;-61
2023/07/13 14:17:21;;;;;;;;;;;;;;;;;;5023531;28;4530;-61
2023/07/13 14:19:50;;;;;;;;;;;;;;;;;;5027258;28;5251;-60
2023/07/13 14:22:15;;;;;;;;;;;;;;;;;;5028662;28;5031;-60
2023/07/13 14:24:41;;;;;;;;;;;;;;;;;;5022010;28;3255;-60
2023/07/13 14:27:07;;;;;;;;;;;;;;;;;;5025992;28;4457;-60
2023/07/13 14:29:33;;;;;;;;;;;;;;;;;;5023273;28;5000;-61
2023/07/13 14:31:59;;;;;;;;;;;;;;;;;;5028537;28;4830;-60
2023/07/13 14:34:24;;;;;;;;;;;;;;;;;;5028692;28;4461;-60
2023/07/13 14:36:50;;;;;;;;;;;;;;;;;;5029279;28;1101;-60
2023/07/13 14:39:16;;;;;;;;;;;;;;;;;;5027009;28;4407;-60
2023/07/13 14:41:42;;;;;;;;;;;;;;;;;;5022943;28;4888;-60
2023/07/13 14:44:14;;;;;;;;;;;;;;;;;;5019129;28;5157;-63
2023/07/13 14:46:39;;;;;;;;;;;;;;;;;;5028676;28;5058;-61
2023/07/13 14:49:22;;;;;;;;;;;;;;;;;;5027786;28;3254;-62
2023/07/13 14:51:47;;;;;;;;;;;;;;;;;;5026187;28;4510;-61
2023/07/13 14:54:12;;;;;;;;;;;;;;;;;;5024052;28;4474;-61
2023/07/13 14:56:37;;;;;;;;;;;;;;;;;;5027702;28;5226;-62
2023/07/13 14:59:03;;;;;;;;;;;;;;;;;;5022558;28;4717;-62
2023/07/13 15:01:28;;;;;;;;;;;;;;;;;;5017031;28;5095;-58
2023/07/13 15:03:53;;;;;;;;;;;;;;;;;;5028501;28;3238;-57
2023/07/13 15:06:19;;;;;;;;;;;;;;;;;;5027540;28;4980;-56
2023/07/13 15:08:44;;;;;;;;;;;;;;;;;;5027611;28;4503;-57
2023/07/13 15:11:12;;;;;;;;;;;;;;;;;;5026186;28;5071;-56
2023/07/13 15:13:38;;;;;;;;;;;;;;;;;;5024249;28;4470;-56
2023/07/13 15:16:04;;;;;;;;;;;;;;;;;;5025934;28;1326;-56
2023/07/13 15:18:29;;;;;;;;;;;;;;;;;;5026725;28;4911;-56
2023/07/13 15:20:57;;;;;;;;;;;;;;;;;;5027418;28;5073;-56
2023/07/13 15:23:25;;;;;;;;;;;;;;;;;;5024213;28;5138;-56
2023/07/13 15:25:52;;;;;;;;;;;;;;;;;;5026248;28;5235;-57
2023/07/13 15:28:17;;;;;;;;;;;;;;;;;;5020974;28;4647;-58
2023/07/13 15:30:43;;;;;;;;;;;;;;;;;;5027760;28;1329;-58
2023/07/13 15:33:19;;;;;;;;;;;;;;;;;;5024729;28;5380;-58
2023/07/13 15:35:45;;;;;;;;;;;;;;;;;;5027678;28;4483;-58
2023/07/13 15:38:15;;;;;;;;;;;;;;;;;;5026301;28;5017;-57
2023/07/13 15:40:40;;;;;;;;;;;;;;;;;;5021427;28;4546;-62
2023/07/13 15:43:09;;;;;;;;;;;;;;;;;;5020446;28;4680;-60
2023/07/13 15:45:35;;;;;;;;;;;;;;;;;;5038646;28;3186;-62
2023/07/13 15:48:00;;;;;;;;;;;;;;;;;;5015947;28;4992;-60
2023/07/13 15:50:26;;;;;;;;;;;;;;;;;;5018395;28;5023;-59
2023/07/13 15:52:52;;;;;;;;;;;;;;;;;;5024008;28;5020;-60
2023/07/13 15:55:17;;;;;;;;;;;;;;;;;;5025762;28;4794;-60
2023/07/13 15:57:50;;;;;;;;;;;;;;;;;;5026956;28;1271;-62
2023/07/13 16:00:23;;;;;;;;;;;;;;;;;;5026139;28;5211;-60
2023/07/13 16:02:48;;;;;;;;;;;;;;;;;;5026571;28;5023;-60
2023/07/13 16:05:15;;;;;;;;;;;;;;;;;;5026423;28;5039;-62
2023/07/13 16:07:41;;;;;;;;;;;;;;;;;;5026603;28;4836;-61
2023/07/13 16:10:07;;;;;;;;;;;;;;;;;;5027262;28;4629;-59
2023/07/13 16:12:33;;;;;;;;;;;;;;;;;;5027859;28;1237;-61
2023/07/13 16:14:59;;;;;;;;;;;;;;;;;;5018377;28;5022;-61
2023/07/13 16:17:24;;;;;;;;;;;;;;;;;;5027174;28;4984;-59
2023/07/13 16:19:49;;;;;;;;;;;;;;;;;;5026993;28;4987;-60
2023/07/13 16:22:16;;;;;;;;;;;;;;;;;;5024315;28;5178;-60
2023/07/13 16:24:41;;;;;;;;;;;;;;;;;;5030926;28;1191;-59
2023/07/13 16:27:07;;;;;;;;;;;;;;;;;;5031382;28;5095;-61
2023/07/13 16:29:33;;;;;;;;;;;;;;;;;;5026124;28;4501;-60
2023/07/13 16:32:05;;;;;;;;;;;;;;;;;;5029660;28;4468;-60
2023/07/13 16:34:31;;;;;;;;;;;;;;;;;;5029179;28;5086;-61
2023/07/13 16:36:56;;;;;;;;;;;;;;;;;;5031232;28;1329;-60
2023/07/13 16:39:24;;;;;;;;;;;;;;;;;;5030722;28;4581;-61
2023/07/13 16:41:54;;;;;;;;;;;;;;;;;;5031005;28;4633;-60
2023/07/13 16:44:20;;;;;;;;;;;;;;;;;;5029797;28;5056;-60
2023/07/13 16:46:49;;;;;;;;;;;;;;;;;;5031285;28;5004;-61
2023/07/13 16:49:17;;;;;;;;;;;;;;;;;;5026246;28;4663;-60
2023/07/13 16:51:43;;;;;;;;;;;;;;;;;;5026558;28;2169;-61
2023/07/13 16:54:09;;;;;;;;;;;;;;;;;;5029680;28;4893;-61
2023/07/13 16:56:35;;;;;;;;;;;;;;;;;;5030076;28;4614;-61
2023/07/13 16:59:00;;;;;;;;;;;;;;;;;;5029907;28;4693;-60
2023/07/13 17:01:25;;;;;;;;;;;;;;;;;;5028726;28;4684;-61